createdAt,value
2023-01-25T00:00:01.202Z,33.94
2023-01-25T00:00:11.208Z,33.94
2023-01-25T00:00:21.206Z,33.94
2023-01-25T00:00:31.222Z,33.94
2023-01-25T00:00:41.200Z,33.94
2023-01-25T00:00:51.192Z,33.94
2023-01-25T00:01:01.192Z,33.94
2023-01-25T00:01:11.202Z,33.94
2023-01-25T00:01:21.233Z,33.94
2023-01-25T00:01:31.209Z,33.94
2023-01-25T00:01:41.211Z,33.94
2023-01-25T00:01:51.255Z,33.94
2023-01-25T00:02:01.297Z,33.94
2023-01-25T00:02:11.280Z,33.94
2023-01-25T00:02:21.293Z,33.94
2023-01-25T00:02:31.238Z,33.94
2023-01-25T00:02:41.214Z,33.94
2023-01-25T00:02:51.251Z,33.94
2023-01-25T00:03:01.246Z,33.94
2023-01-25T00:03:11.272Z,33.94
2023-01-25T00:03:21.317Z,33.94
2023-01-25T00:03:31.261Z,33.94
2023-01-25T00:03:41.221Z,33.94
2023-01-25T00:03:51.223Z,33.94
2023-01-25T00:04:01.230Z,33.94
2023-01-25T00:04:11.224Z,33.94
2023-01-25T00:04:21.225Z,33.94
2023-01-25T00:04:31.220Z,33.94
2023-01-25T00:04:41.227Z,33.94
2023-01-25T00:04:51.224Z,33.94
2023-01-25T00:05:01.228Z,33.94
2023-01-25T00:05:11.223Z,33.94
2023-01-25T00:05:21.225Z,33.94
2023-01-25T00:05:31.241Z,33.94
2023-01-25T00:05:41.229Z,33.94
2023-01-25T00:05:51.230Z,33.94
2023-01-25T00:06:01.235Z,33.94
2023-01-25T00:06:11.229Z,33.94
2023-01-25T00:06:21.228Z,33.94
2023-01-25T00:06:31.230Z,33.94
2023-01-25T00:06:41.232Z,33.94
2023-01-25T00:06:51.232Z,33.94
2023-01-25T00:07:01.238Z,33.94
2023-01-25T00:07:11.232Z,33.94
2023-01-25T00:07:21.238Z,34.05
2023-01-25T00:07:31.249Z,33.94
2023-01-25T00:07:41.237Z,34.05
2023-01-25T00:07:51.244Z,33.94
2023-01-25T00:08:01.236Z,33.94
2023-01-25T00:08:11.239Z,33.94
2023-01-25T00:08:21.240Z,33.94
2023-01-25T00:08:31.240Z,33.94
2023-01-25T00:08:41.241Z,33.94
2023-01-25T00:08:51.240Z,34.05
2023-01-25T00:09:01.250Z,33.94
2023-01-25T00:09:11.241Z,33.94
2023-01-25T00:09:21.240Z,33.94
2023-01-25T00:09:31.239Z,33.94
2023-01-25T00:09:41.248Z,34.05
2023-01-25T00:09:51.242Z,34.05
2023-01-25T00:10:01.244Z,34.05
2023-01-25T00:10:11.247Z,33.94
2023-01-25T00:10:21.263Z,33.94
2023-01-25T00:10:31.251Z,33.94
2023-01-25T00:10:41.247Z,33.94
2023-01-25T00:10:51.245Z,33.94
2023-01-25T00:11:01.245Z,33.94
2023-01-25T00:11:11.255Z,34.05
2023-01-25T00:11:21.246Z,34.05
2023-01-25T00:11:31.252Z,34.05
2023-01-25T00:11:41.257Z,33.94
2023-01-25T00:11:51.252Z,34.05
2023-01-25T00:12:01.257Z,34.05
2023-01-25T00:12:11.257Z,34.05
2023-01-25T00:12:21.258Z,34.05
2023-01-25T00:12:31.270Z,34.05
2023-01-25T00:12:41.259Z,34.05
2023-01-25T00:12:51.260Z,33.94
2023-01-25T00:13:01.266Z,34.05
2023-01-25T00:13:11.266Z,34.05
2023-01-25T00:13:21.257Z,34.05
2023-01-25T00:13:31.259Z,34.05
2023-01-25T00:13:41.271Z,34.05
2023-01-25T00:13:51.264Z,34.05
2023-01-25T00:14:01.264Z,34.05
2023-01-25T00:14:11.265Z,34.05
2023-01-25T00:14:21.260Z,34.05
2023-01-25T00:14:31.260Z,34.05
2023-01-25T00:14:41.270Z,34.05
2023-01-25T00:14:51.280Z,34.05
2023-01-25T00:15:01.267Z,34.05
2023-01-25T00:15:11.269Z,34.05
2023-01-25T00:15:21.267Z,34.05
2023-01-25T00:15:31.282Z,34.05
2023-01-25T00:15:41.266Z,34.05
2023-01-25T00:15:51.272Z,34.05
2023-01-25T00:16:01.273Z,34.05
2023-01-25T00:16:11.404Z,34.05
2023-01-25T00:16:21.313Z,34.05
2023-01-25T00:16:31.354Z,34.05
2023-01-25T00:16:41.343Z,34.05
2023-01-25T00:16:51.376Z,34.05
2023-01-25T00:17:01.274Z,34.05
2023-01-25T00:17:11.260Z,34.05
2023-01-25T00:17:21.273Z,34.05
2023-01-25T00:17:31.283Z,34.05
2023-01-25T00:17:41.274Z,34.05
2023-01-25T00:17:51.292Z,34.05
2023-01-25T00:18:01.277Z,34.05
2023-01-25T00:18:11.286Z,34.05
2023-01-25T00:18:21.297Z,34.05
2023-01-25T00:18:31.283Z,34.05
2023-01-25T00:18:41.277Z,34.05
2023-01-25T00:18:51.280Z,34.05
2023-01-25T00:19:01.293Z,34.05
2023-01-25T00:19:11.277Z,34.05
2023-01-25T00:19:21.280Z,34.05
2023-01-25T00:19:31.272Z,34.05
2023-01-25T00:19:41.272Z,34.05
2023-01-25T00:19:51.290Z,34.05
2023-01-25T00:20:01.286Z,34.05
2023-01-25T00:20:11.289Z,34.05
2023-01-25T00:20:21.288Z,34.05
2023-01-25T00:20:31.294Z,34.05
2023-01-25T00:20:41.289Z,34.05
2023-01-25T00:20:51.290Z,34.05
2023-01-25T00:21:01.302Z,34.05
2023-01-25T00:21:11.289Z,34.05
2023-01-25T00:21:21.291Z,34.05
2023-01-25T00:21:31.289Z,34.05
2023-01-25T00:21:41.284Z,34.05
2023-01-25T00:21:51.280Z,34.05
2023-01-25T00:22:01.301Z,34.05
2023-01-25T00:22:11.292Z,34.05
2023-01-25T00:22:21.298Z,34.05
2023-01-25T00:22:31.300Z,34.05
2023-01-25T00:22:41.300Z,34.05
2023-01-25T00:22:51.335Z,34.05
2023-01-25T00:23:01.304Z,34.05
2023-01-25T00:23:11.301Z,34.05
2023-01-25T00:23:21.307Z,34.05
2023-01-25T00:23:31.302Z,34.14
2023-01-25T00:23:41.302Z,34.14
2023-01-25T00:23:51.319Z,34.05
2023-01-25T00:24:01.411Z,34.05
2023-01-25T00:24:11.361Z,34.05
2023-01-25T00:24:21.346Z,34.05
2023-01-25T00:24:31.307Z,34.05
2023-01-25T00:24:41.315Z,34.05
2023-01-25T00:24:51.309Z,34.05
2023-01-25T00:25:01.307Z,34.05
2023-01-25T00:25:11.355Z,34.05
2023-01-25T00:25:21.309Z,34.05
2023-01-25T00:25:31.311Z,34.05
2023-01-25T00:25:41.316Z,34.05
2023-01-25T00:25:51.313Z,34.05
2023-01-25T00:26:01.323Z,34.05
2023-01-25T00:26:11.317Z,34.05
2023-01-25T00:26:21.320Z,34.05
2023-01-25T00:26:31.314Z,34.05
2023-01-25T00:26:41.323Z,34.14
2023-01-25T00:26:51.321Z,34.05
2023-01-25T00:27:01.318Z,34.05
2023-01-25T00:27:11.320Z,34.05
2023-01-25T00:27:21.324Z,34.05
2023-01-25T00:27:31.323Z,34.05
2023-01-25T00:27:41.320Z,34.05
2023-01-25T00:27:51.322Z,34.05
2023-01-25T00:28:01.331Z,34.05
2023-01-25T00:28:11.320Z,34.05
2023-01-25T00:28:21.321Z,34.14
2023-01-25T00:28:31.322Z,34.14
2023-01-25T00:28:41.330Z,34.05
2023-01-25T00:28:51.322Z,34.05
2023-01-25T00:29:01.323Z,34.05
2023-01-25T00:29:11.325Z,34.14
2023-01-25T00:29:21.327Z,34.14
2023-01-25T00:29:31.328Z,34.14
2023-01-25T00:29:41.329Z,34.14
2023-01-25T00:29:51.339Z,34.05
2023-01-25T00:30:01.337Z,34.05
2023-01-25T00:30:11.336Z,34.14
2023-01-25T00:30:21.329Z,34.14
2023-01-25T00:30:31.333Z,34.14
2023-01-25T00:30:41.335Z,34.14
2023-01-25T00:30:51.320Z,34.14
2023-01-25T00:31:01.346Z,34.14
2023-01-25T00:31:11.340Z,34.14
2023-01-25T00:31:21.450Z,34.14
2023-01-25T00:31:31.423Z,34.14
2023-01-25T00:31:41.494Z,34.14
2023-01-25T00:31:51.509Z,34.14
2023-01-25T00:32:01.472Z,34.14
2023-01-25T00:32:11.493Z,34.14
2023-01-25T00:32:21.464Z,34.14
2023-01-25T00:32:31.449Z,34.14
2023-01-25T00:32:41.448Z,34.14
2023-01-25T00:32:51.343Z,34.14
2023-01-25T00:33:01.350Z,34.14
2023-01-25T00:33:11.345Z,34.14
2023-01-25T00:33:21.341Z,34.14
2023-01-25T00:33:31.345Z,34.14
2023-01-25T00:33:41.362Z,34.14
2023-01-25T00:33:51.349Z,34.14
2023-01-25T00:34:01.350Z,34.14
2023-01-25T00:34:11.348Z,34.14
2023-01-25T00:34:21.356Z,34.14
2023-01-25T00:34:31.357Z,34.14
2023-01-25T00:34:41.352Z,34.14
2023-01-25T00:34:51.356Z,34.14
2023-01-25T00:35:01.365Z,34.14
2023-01-25T00:35:11.357Z,34.14
2023-01-25T00:35:21.353Z,34.14
2023-01-25T00:35:31.367Z,34.14
2023-01-25T00:35:41.354Z,34.14
2023-01-25T00:35:51.359Z,34.14
2023-01-25T00:36:01.356Z,34.14
2023-01-25T00:36:11.359Z,34.14
2023-01-25T00:36:21.361Z,34.14
2023-01-25T00:36:31.363Z,34.14
2023-01-25T00:36:41.358Z,34.14
2023-01-25T00:36:51.360Z,34.14
2023-01-25T00:37:01.362Z,34.14
2023-01-25T00:37:11.363Z,34.14
2023-01-25T00:37:21.363Z,34.14
2023-01-25T00:37:31.367Z,34.14
2023-01-25T00:37:41.370Z,34.14
2023-01-25T00:37:51.365Z,34.14
2023-01-25T00:38:01.367Z,34.14
2023-01-25T00:38:11.366Z,34.14
2023-01-25T00:38:21.369Z,34.14
2023-01-25T00:38:31.368Z,34.14
2023-01-25T00:38:41.373Z,34.14
2023-01-25T00:38:51.371Z,34.14
2023-01-25T00:39:01.373Z,34.14
2023-01-25T00:39:11.376Z,34.14
2023-01-25T00:39:21.374Z,34.14
2023-01-25T00:39:31.378Z,34.14
2023-01-25T00:39:41.387Z,34.14
2023-01-25T00:39:51.374Z,34.14
2023-01-25T00:40:01.378Z,34.14
2023-01-25T00:40:11.378Z,34.14
2023-01-25T00:40:21.389Z,34.14
2023-01-25T00:40:31.384Z,34.14
2023-01-25T00:40:41.384Z,34.14
2023-01-25T00:40:51.379Z,34.14
2023-01-25T00:41:01.394Z,34.14
2023-01-25T00:41:11.389Z,34.14
2023-01-25T00:41:21.381Z,34.14
2023-01-25T00:41:31.380Z,34.14
2023-01-25T00:41:41.388Z,34.14
2023-01-25T00:41:51.382Z,34.14
2023-01-25T00:42:01.386Z,34.14
2023-01-25T00:42:11.373Z,34.14
2023-01-25T00:42:21.391Z,34.14
2023-01-25T00:42:31.390Z,34.25
2023-01-25T00:42:41.383Z,34.14
2023-01-25T00:42:51.384Z,34.14
2023-01-25T00:43:01.388Z,34.25
2023-01-25T00:43:11.371Z,34.25
2023-01-25T00:43:21.385Z,34.14
2023-01-25T00:43:31.384Z,34.25
2023-01-25T00:43:41.392Z,34.14
2023-01-25T00:43:51.386Z,34.14
2023-01-25T00:44:01.392Z,34.14
2023-01-25T00:44:11.390Z,34.14
2023-01-25T00:44:21.388Z,34.14
2023-01-25T00:44:31.392Z,34.14
2023-01-25T00:44:41.394Z,34.25
2023-01-25T00:44:51.398Z,34.14
2023-01-25T00:45:01.480Z,34.25
2023-01-25T00:45:11.410Z,34.14
2023-01-25T00:45:21.390Z,34.25
2023-01-25T00:45:31.402Z,34.14
2023-01-25T00:45:41.455Z,34.14
2023-01-25T00:45:51.492Z,34.25
2023-01-25T00:46:01.466Z,34.25
2023-01-25T00:46:11.436Z,34.14
2023-01-25T00:46:21.422Z,34.25
2023-01-25T00:46:31.396Z,34.25
2023-01-25T00:46:41.397Z,34.25
2023-01-25T00:46:51.407Z,34.25
2023-01-25T00:47:01.423Z,34.25
2023-01-25T00:47:11.423Z,34.25
2023-01-25T00:47:21.413Z,34.25
2023-01-25T00:47:31.405Z,34.25
2023-01-25T00:47:41.423Z,34.25
2023-01-25T00:47:51.389Z,34.25
2023-01-25T00:48:01.399Z,34.25
2023-01-25T00:48:11.405Z,34.25
2023-01-25T00:48:21.415Z,34.25
2023-01-25T00:48:31.406Z,34.25
2023-01-25T00:48:41.408Z,34.25
2023-01-25T00:48:51.410Z,34.25
2023-01-25T00:49:01.406Z,34.25
2023-01-25T00:49:11.412Z,34.25
2023-01-25T00:49:21.410Z,34.25
2023-01-25T00:49:31.412Z,34.25
2023-01-25T00:49:41.410Z,34.25
2023-01-25T00:49:51.415Z,34.25
2023-01-25T00:50:01.424Z,34.25
2023-01-25T00:50:11.414Z,34.25
2023-01-25T00:50:21.425Z,34.25
2023-01-25T00:50:31.422Z,34.25
2023-01-25T00:50:41.421Z,34.25
2023-01-25T00:50:51.420Z,34.25
2023-01-25T00:51:01.417Z,34.25
2023-01-25T00:51:11.420Z,34.25
2023-01-25T00:51:21.422Z,34.25
2023-01-25T00:51:31.419Z,34.25
2023-01-25T00:51:41.418Z,34.25
2023-01-25T00:51:51.418Z,34.25
2023-01-25T00:52:01.429Z,34.25
2023-01-25T00:52:11.421Z,34.25
2023-01-25T00:52:21.422Z,34.25
2023-01-25T00:52:31.426Z,34.25
2023-01-25T00:52:41.426Z,34.25
2023-01-25T00:52:51.424Z,34.25
2023-01-25T00:53:01.430Z,34.25
2023-01-25T00:53:11.427Z,34.25
2023-01-25T00:53:21.430Z,34.25
2023-01-25T00:53:31.439Z,34.25
2023-01-25T00:53:41.443Z,34.25
2023-01-25T00:53:51.433Z,34.25
2023-01-25T00:54:01.431Z,34.25
2023-01-25T00:54:11.444Z,34.25
2023-01-25T00:54:21.433Z,34.25
2023-01-25T00:54:31.434Z,34.25
2023-01-25T00:54:41.449Z,34.25
2023-01-25T00:54:51.435Z,34.25
2023-01-25T00:55:01.443Z,34.25
2023-01-25T00:55:11.432Z,34.25
2023-01-25T00:55:21.439Z,34.25
2023-01-25T00:55:31.438Z,34.25
2023-01-25T00:55:41.439Z,34.25
2023-01-25T00:55:51.437Z,34.25
2023-01-25T00:56:01.441Z,34.25
2023-01-25T00:56:11.444Z,34.25
2023-01-25T00:56:21.442Z,34.25
2023-01-25T00:56:31.443Z,34.25
2023-01-25T00:56:41.444Z,34.25
2023-01-25T00:56:51.442Z,34.25
2023-01-25T00:57:01.447Z,34.25
2023-01-25T00:57:11.448Z,34.25
2023-01-25T00:57:21.445Z,34.25
2023-01-25T00:57:31.432Z,34.25
2023-01-25T00:57:41.453Z,34.26
2023-01-25T00:57:51.446Z,34.25
2023-01-25T00:58:01.462Z,34.25
2023-01-25T00:58:11.455Z,34.25
2023-01-25T00:58:21.448Z,34.25
2023-01-25T00:58:31.451Z,34.25
2023-01-25T00:58:41.452Z,34.26
2023-01-25T00:58:51.473Z,34.25
2023-01-25T00:59:01.461Z,34.25
2023-01-25T00:59:11.455Z,34.25
2023-01-25T00:59:21.458Z,34.25
2023-01-25T00:59:31.464Z,34.25
2023-01-25T00:59:41.455Z,34.25
2023-01-25T00:59:51.465Z,34.25
2023-01-25T01:00:01.460Z,34.25
2023-01-25T01:00:11.464Z,34.25
2023-01-25T01:00:21.463Z,34.25
2023-01-25T01:00:31.461Z,34.25
2023-01-25T01:00:41.464Z,34.25
2023-01-25T01:00:51.496Z,34.25
2023-01-25T01:01:01.500Z,34.25
2023-01-25T01:01:11.526Z,34.25
2023-01-25T01:01:21.527Z,34.25
2023-01-25T01:01:31.508Z,34.25
2023-01-25T01:01:41.470Z,34.25
2023-01-25T01:01:51.477Z,34.26
2023-01-25T01:02:01.476Z,34.25
2023-01-25T01:02:11.469Z,34.25
2023-01-25T01:02:21.472Z,34.26
2023-01-25T01:02:31.472Z,34.25
2023-01-25T01:02:41.474Z,34.25
2023-01-25T01:02:51.475Z,34.25
2023-01-25T01:03:01.497Z,34.26
2023-01-25T01:03:11.473Z,34.25
2023-01-25T01:03:21.476Z,34.26
2023-01-25T01:03:31.477Z,34.25
2023-01-25T01:03:41.489Z,34.26
2023-01-25T01:03:51.471Z,34.25
2023-01-25T01:04:01.499Z,34.26
2023-01-25T01:04:11.488Z,34.25
2023-01-25T01:04:21.512Z,34.25
2023-01-25T01:04:31.615Z,34.36
2023-01-25T01:04:41.610Z,34.36
2023-01-25T01:04:51.547Z,34.25
2023-01-25T01:05:01.568Z,34.26
2023-01-25T01:05:11.968Z,34.36
2023-01-25T01:05:21.484Z,34.25
2023-01-25T01:05:31.485Z,34.34
2023-01-25T01:05:41.488Z,34.34
2023-01-25T01:05:51.488Z,34.34
2023-01-25T01:06:01.506Z,34.34
2023-01-25T01:06:11.491Z,34.34
2023-01-25T01:06:21.488Z,34.34
2023-01-25T01:06:31.493Z,34.26
2023-01-25T01:06:41.488Z,34.36
2023-01-25T01:06:51.488Z,34.25
2023-01-25T01:07:01.491Z,34.36
2023-01-25T01:07:11.489Z,34.34
2023-01-25T01:07:21.492Z,34.34
2023-01-25T01:07:31.494Z,34.34
2023-01-25T01:07:41.496Z,34.34
2023-01-25T01:07:51.506Z,34.34
2023-01-25T01:08:01.519Z,34.36
2023-01-25T01:08:11.498Z,34.34
2023-01-25T01:08:21.497Z,34.36
2023-01-25T01:08:31.499Z,34.34
2023-01-25T01:08:41.498Z,34.34
2023-01-25T01:08:51.497Z,34.34
2023-01-25T01:09:01.499Z,34.36
2023-01-25T01:09:11.501Z,34.34
2023-01-25T01:09:21.504Z,34.34
2023-01-25T01:09:31.504Z,34.36
2023-01-25T01:09:41.515Z,34.36
2023-01-25T01:09:51.505Z,34.36
2023-01-25T01:10:01.516Z,34.36
2023-01-25T01:10:11.519Z,34.36
2023-01-25T01:10:21.504Z,34.36
2023-01-25T01:10:31.509Z,34.36
2023-01-25T01:10:41.505Z,34.34
2023-01-25T01:10:51.506Z,34.36
2023-01-25T01:11:01.519Z,34.34
2023-01-25T01:11:11.512Z,34.34
2023-01-25T01:11:21.512Z,34.36
2023-01-25T01:11:31.506Z,34.34
2023-01-25T01:11:41.511Z,34.36
2023-01-25T01:11:51.524Z,34.36
2023-01-25T01:12:01.516Z,34.36
2023-01-25T01:12:11.509Z,34.34
2023-01-25T01:12:21.517Z,34.34
2023-01-25T01:12:31.511Z,34.36
2023-01-25T01:12:41.515Z,34.36
2023-01-25T01:12:51.515Z,34.36
2023-01-25T01:13:01.520Z,34.36
2023-01-25T01:13:11.516Z,34.34
2023-01-25T01:13:21.519Z,34.36
2023-01-25T01:13:31.528Z,34.36
2023-01-25T01:13:41.520Z,34.36
2023-01-25T01:13:51.520Z,34.36
2023-01-25T01:14:01.520Z,34.34
2023-01-25T01:14:11.532Z,34.34
2023-01-25T01:14:21.523Z,34.36
2023-01-25T01:14:31.545Z,34.36
2023-01-25T01:14:41.530Z,34.36
2023-01-25T01:14:51.545Z,34.34
2023-01-25T01:15:01.523Z,34.36
2023-01-25T01:15:11.551Z,34.34
2023-01-25T01:15:21.540Z,34.36
2023-01-25T01:15:31.526Z,34.36
2023-01-25T01:15:41.514Z,34.36
2023-01-25T01:15:51.528Z,34.36
2023-01-25T01:16:01.532Z,34.36
2023-01-25T01:16:11.576Z,34.36
2023-01-25T01:16:21.558Z,34.36
2023-01-25T01:16:31.596Z,34.36
2023-01-25T01:16:41.604Z,34.36
2023-01-25T01:16:51.639Z,34.36
2023-01-25T01:17:01.623Z,34.36
2023-01-25T01:17:11.523Z,34.36
2023-01-25T01:17:21.536Z,34.34
2023-01-25T01:17:31.536Z,34.36
2023-01-25T01:17:41.542Z,34.36
2023-01-25T01:17:51.537Z,34.36
2023-01-25T01:18:01.567Z,34.36
2023-01-25T01:18:11.539Z,34.36
2023-01-25T01:18:21.540Z,34.36
2023-01-25T01:18:31.546Z,34.36
2023-01-25T01:18:41.543Z,34.36
2023-01-25T01:18:51.545Z,34.36
2023-01-25T01:19:01.579Z,34.36
2023-01-25T01:19:11.550Z,34.36
2023-01-25T01:19:21.555Z,34.36
2023-01-25T01:19:31.546Z,34.36
2023-01-25T01:19:41.571Z,34.36
2023-01-25T01:19:51.548Z,34.36
2023-01-25T01:20:01.627Z,34.36
2023-01-25T01:20:11.549Z,34.36
2023-01-25T01:20:21.553Z,34.36
2023-01-25T01:20:31.553Z,34.34
2023-01-25T01:20:41.561Z,34.36
2023-01-25T01:20:51.552Z,34.36
2023-01-25T01:21:01.558Z,34.36
2023-01-25T01:21:11.555Z,34.34
2023-01-25T01:21:21.557Z,34.36
2023-01-25T01:21:31.558Z,34.36
2023-01-25T01:21:41.556Z,34.47
2023-01-25T01:21:51.577Z,34.47
2023-01-25T01:22:01.568Z,34.47
2023-01-25T01:22:11.547Z,34.36
2023-01-25T01:22:21.550Z,34.36
2023-01-25T01:22:31.561Z,34.34
2023-01-25T01:22:41.560Z,34.47
2023-01-25T01:22:51.566Z,34.36
2023-01-25T01:23:01.600Z,34.47
2023-01-25T01:23:11.568Z,34.47
2023-01-25T01:23:21.564Z,34.47
2023-01-25T01:23:31.565Z,34.47
2023-01-25T01:23:41.587Z,34.47
2023-01-25T01:23:51.607Z,34.47
2023-01-25T01:24:01.622Z,34.47
2023-01-25T01:24:11.632Z,34.45
2023-01-25T01:24:21.600Z,34.47
2023-01-25T01:24:31.639Z,34.47
2023-01-25T01:24:41.572Z,34.47
2023-01-25T01:24:51.571Z,34.36
2023-01-25T01:25:01.576Z,34.47
2023-01-25T01:25:11.574Z,34.47
2023-01-25T01:25:21.580Z,34.36
2023-01-25T01:25:31.581Z,34.36
2023-01-25T01:25:41.578Z,34.47
2023-01-25T01:25:51.578Z,34.47
2023-01-25T01:26:01.589Z,34.47
2023-01-25T01:26:11.581Z,34.47
2023-01-25T01:26:21.591Z,34.47
2023-01-25T01:26:31.588Z,34.47
2023-01-25T01:26:41.585Z,34.47
2023-01-25T01:26:51.580Z,34.47
2023-01-25T01:27:01.583Z,34.47
2023-01-25T01:27:11.591Z,34.47
2023-01-25T01:27:21.596Z,34.47
2023-01-25T01:27:31.587Z,34.47
2023-01-25T01:27:41.605Z,34.47
2023-01-25T01:27:51.589Z,34.45
2023-01-25T01:28:01.574Z,34.47
2023-01-25T01:28:11.600Z,34.47
2023-01-25T01:28:21.589Z,34.47
2023-01-25T01:28:31.592Z,34.47
2023-01-25T01:28:41.579Z,34.47
2023-01-25T01:28:51.605Z,34.47
2023-01-25T01:29:01.593Z,34.47
2023-01-25T01:29:11.595Z,34.47
2023-01-25T01:29:21.581Z,34.47
2023-01-25T01:29:31.596Z,34.47
2023-01-25T01:29:41.607Z,34.47
2023-01-25T01:29:51.597Z,34.47
2023-01-25T01:30:01.597Z,34.47
2023-01-25T01:30:11.601Z,34.47
2023-01-25T01:30:21.605Z,34.47
2023-01-25T01:30:31.612Z,34.47
2023-01-25T01:30:41.588Z,34.47
2023-01-25T01:30:51.606Z,34.47
2023-01-25T01:31:01.605Z,34.47
2023-01-25T01:31:11.609Z,34.47
2023-01-25T01:31:21.743Z,34.47
2023-01-25T01:31:31.806Z,34.47
2023-01-25T01:31:41.668Z,34.47
2023-01-25T01:31:51.755Z,34.47
2023-01-25T01:32:01.741Z,34.47
2023-01-25T01:32:11.850Z,34.47
2023-01-25T01:32:21.715Z,34.47
2023-01-25T01:32:31.767Z,34.47
2023-01-25T01:32:41.675Z,34.47
2023-01-25T01:32:51.786Z,34.47
2023-01-25T01:33:01.618Z,34.47
2023-01-25T01:33:11.623Z,34.47
2023-01-25T01:33:21.618Z,34.47
2023-01-25T01:33:31.631Z,34.47
2023-01-25T01:33:41.627Z,34.47
2023-01-25T01:33:51.617Z,34.47
2023-01-25T01:34:01.623Z,34.47
2023-01-25T01:34:11.620Z,34.47
2023-01-25T01:34:21.628Z,34.47
2023-01-25T01:34:31.608Z,34.47
2023-01-25T01:34:41.621Z,34.47
2023-01-25T01:34:51.624Z,34.47
2023-01-25T01:35:01.623Z,34.47
2023-01-25T01:35:11.625Z,34.47
2023-01-25T01:35:21.611Z,34.47
2023-01-25T01:35:31.624Z,34.47
2023-01-25T01:35:41.625Z,34.47
2023-01-25T01:35:51.613Z,34.47
2023-01-25T01:36:01.630Z,34.47
2023-01-25T01:36:11.613Z,34.47
2023-01-25T01:36:21.629Z,34.47
2023-01-25T01:36:31.632Z,34.47
2023-01-25T01:36:41.619Z,34.47
2023-01-25T01:36:51.630Z,34.47
2023-01-25T01:37:01.636Z,34.47
2023-01-25T01:37:11.645Z,34.47
2023-01-25T01:37:21.635Z,34.47
2023-01-25T01:37:31.642Z,34.47
2023-01-25T01:37:41.636Z,34.47
2023-01-25T01:37:51.637Z,34.47
2023-01-25T01:38:01.638Z,34.47
2023-01-25T01:38:11.640Z,34.47
2023-01-25T01:38:21.645Z,34.47
2023-01-25T01:38:31.653Z,34.47
2023-01-25T01:38:41.640Z,34.47
2023-01-25T01:38:51.652Z,34.47
2023-01-25T01:39:01.648Z,34.47
2023-01-25T01:39:11.652Z,34.47
2023-01-25T01:39:21.640Z,34.56
2023-01-25T01:39:31.644Z,34.47
2023-01-25T01:39:41.641Z,34.47
2023-01-25T01:39:51.643Z,34.47
2023-01-25T01:40:01.677Z,34.47
2023-01-25T01:40:11.649Z,34.47
2023-01-25T01:40:21.644Z,34.47
2023-01-25T01:40:31.647Z,34.47
2023-01-25T01:40:41.647Z,34.47
2023-01-25T01:40:51.643Z,34.47
2023-01-25T01:41:01.651Z,34.47
2023-01-25T01:41:11.662Z,34.47
2023-01-25T01:41:21.653Z,34.47
2023-01-25T01:41:31.662Z,34.47
2023-01-25T01:41:41.652Z,34.56
2023-01-25T01:41:51.654Z,34.56
2023-01-25T01:42:01.662Z,34.47
2023-01-25T01:42:11.643Z,34.56
2023-01-25T01:42:21.655Z,34.47
2023-01-25T01:42:31.668Z,34.56
2023-01-25T01:42:41.657Z,34.56
2023-01-25T01:42:51.672Z,34.56
2023-01-25T01:43:01.666Z,34.56
2023-01-25T01:43:11.662Z,34.56
2023-01-25T01:43:21.669Z,34.56
2023-01-25T01:43:31.670Z,34.56
2023-01-25T01:43:41.662Z,34.56
2023-01-25T01:43:51.663Z,34.47
2023-01-25T01:44:01.669Z,34.56
2023-01-25T01:44:11.667Z,34.56
2023-01-25T01:44:21.666Z,34.56
2023-01-25T01:44:31.653Z,34.56
2023-01-25T01:44:41.673Z,34.56
2023-01-25T01:44:51.695Z,34.56
2023-01-25T01:45:01.688Z,34.47
2023-01-25T01:45:11.671Z,34.47
2023-01-25T01:45:21.671Z,34.47
2023-01-25T01:45:31.691Z,34.56
2023-01-25T01:45:41.805Z,34.47
2023-01-25T01:45:51.779Z,34.56
2023-01-25T01:46:01.739Z,34.56
2023-01-25T01:46:11.735Z,34.56
2023-01-25T01:46:21.681Z,34.56
2023-01-25T01:46:31.688Z,34.56
2023-01-25T01:46:41.680Z,34.56
2023-01-25T01:46:51.679Z,34.56
2023-01-25T01:47:01.679Z,34.56
2023-01-25T01:47:11.679Z,34.56
2023-01-25T01:47:21.681Z,34.56
2023-01-25T01:47:31.682Z,34.56
2023-01-25T01:47:41.670Z,34.56
2023-01-25T01:47:51.700Z,34.56
2023-01-25T01:48:01.686Z,34.56
2023-01-25T01:48:11.721Z,34.56
2023-01-25T01:48:21.686Z,34.56
2023-01-25T01:48:31.687Z,34.56
2023-01-25T01:48:41.684Z,34.56
2023-01-25T01:48:51.691Z,34.56
2023-01-25T01:49:01.693Z,34.56
2023-01-25T01:49:11.688Z,34.56
2023-01-25T01:49:21.687Z,34.56
2023-01-25T01:49:31.687Z,34.56
2023-01-25T01:49:41.686Z,34.56
2023-01-25T01:49:51.701Z,34.56
2023-01-25T01:50:01.722Z,34.56
2023-01-25T01:50:11.701Z,34.56
2023-01-25T01:50:21.695Z,34.56
2023-01-25T01:50:31.695Z,34.56
2023-01-25T01:50:41.697Z,34.56
2023-01-25T01:50:51.693Z,34.56
2023-01-25T01:51:01.701Z,34.56
2023-01-25T01:51:11.699Z,34.56
2023-01-25T01:51:21.696Z,34.56
2023-01-25T01:51:31.703Z,34.56
2023-01-25T01:51:41.702Z,34.56
2023-01-25T01:51:51.702Z,34.56
2023-01-25T01:52:01.709Z,34.56
2023-01-25T01:52:11.718Z,34.56
2023-01-25T01:52:21.705Z,34.56
2023-01-25T01:52:31.712Z,34.56
2023-01-25T01:52:41.707Z,34.56
2023-01-25T01:52:51.712Z,34.56
2023-01-25T01:53:01.706Z,34.56
2023-01-25T01:53:11.714Z,34.56
2023-01-25T01:53:21.713Z,34.56
2023-01-25T01:53:31.709Z,34.56
2023-01-25T01:53:41.710Z,34.56
2023-01-25T01:53:51.714Z,34.56
2023-01-25T01:54:01.716Z,34.56
2023-01-25T01:54:11.729Z,34.56
2023-01-25T01:54:21.715Z,34.56
2023-01-25T01:54:31.751Z,34.56
2023-01-25T01:54:41.715Z,34.56
2023-01-25T01:54:51.721Z,34.56
2023-01-25T01:55:01.759Z,34.56
2023-01-25T01:55:11.726Z,34.56
2023-01-25T01:55:21.719Z,34.56
2023-01-25T01:55:31.721Z,34.56
2023-01-25T01:55:41.721Z,34.56
2023-01-25T01:55:51.707Z,34.56
2023-01-25T01:56:01.736Z,34.56
2023-01-25T01:56:11.749Z,34.56
2023-01-25T01:56:21.771Z,34.56
2023-01-25T01:56:31.795Z,34.56
2023-01-25T01:56:41.726Z,34.56
2023-01-25T01:56:51.711Z,34.56
2023-01-25T01:57:01.726Z,34.56
2023-01-25T01:57:11.734Z,34.56
2023-01-25T01:57:21.728Z,34.56
2023-01-25T01:57:31.727Z,34.56
2023-01-25T01:57:41.734Z,34.56
2023-01-25T01:57:51.736Z,34.56
2023-01-25T01:58:01.733Z,34.56
2023-01-25T01:58:11.731Z,34.56
2023-01-25T01:58:21.737Z,34.56
2023-01-25T01:58:31.736Z,34.56
2023-01-25T01:58:41.736Z,34.56
2023-01-25T01:58:51.736Z,34.56
2023-01-25T01:59:01.743Z,34.56
2023-01-25T01:59:11.736Z,34.56
2023-01-25T01:59:21.738Z,34.56
2023-01-25T01:59:31.748Z,34.56
2023-01-25T01:59:41.737Z,34.56
2023-01-25T01:59:51.741Z,34.56
2023-01-25T02:00:01.758Z,34.56
2023-01-25T02:00:11.752Z,34.56
2023-01-25T02:00:21.744Z,34.56
2023-01-25T02:00:31.748Z,34.56
2023-01-25T02:00:41.744Z,34.56
2023-01-25T02:00:51.764Z,34.56
2023-01-25T02:01:01.771Z,34.56
2023-01-25T02:01:11.822Z,34.56
2023-01-25T02:01:21.785Z,34.56
2023-01-25T02:01:31.865Z,34.56
2023-01-25T02:01:41.780Z,34.56
2023-01-25T02:01:51.750Z,34.56
2023-01-25T02:02:01.803Z,34.56
2023-01-25T02:02:11.763Z,34.56
2023-01-25T02:02:21.780Z,34.56
2023-01-25T02:02:31.830Z,34.56
2023-01-25T02:02:41.871Z,34.56
2023-01-25T02:02:51.787Z,34.56
2023-01-25T02:03:01.775Z,34.56
2023-01-25T02:03:11.751Z,34.56
2023-01-25T02:03:21.757Z,34.56
2023-01-25T02:03:31.770Z,34.56
2023-01-25T02:03:41.757Z,34.56
2023-01-25T02:03:51.758Z,34.67
2023-01-25T02:04:01.765Z,34.56
2023-01-25T02:04:11.761Z,34.56
2023-01-25T02:04:21.760Z,34.67
2023-01-25T02:04:31.758Z,34.67
2023-01-25T02:04:41.761Z,34.56
2023-01-25T02:04:51.765Z,34.56
2023-01-25T02:05:01.779Z,34.56
2023-01-25T02:05:11.760Z,34.56
2023-01-25T02:05:21.766Z,34.56
2023-01-25T02:05:31.761Z,34.56
2023-01-25T02:05:41.767Z,34.56
2023-01-25T02:05:51.765Z,34.56
2023-01-25T02:06:01.767Z,34.56
2023-01-25T02:06:11.753Z,34.56
2023-01-25T02:06:21.771Z,34.56
2023-01-25T02:06:31.770Z,34.56
2023-01-25T02:06:41.767Z,34.56
2023-01-25T02:06:51.771Z,34.56
2023-01-25T02:07:01.779Z,34.56
2023-01-25T02:07:11.778Z,34.56
2023-01-25T02:07:21.774Z,34.67
2023-01-25T02:07:33.943Z,34.67
2023-01-25T02:07:41.774Z,34.67
2023-01-25T02:07:51.776Z,34.56
2023-01-25T02:08:01.760Z,34.56
2023-01-25T02:08:11.804Z,34.56
2023-01-25T02:08:21.786Z,34.56
2023-01-25T02:08:31.778Z,34.67
2023-01-25T02:08:41.781Z,34.56